Terminal Aerodrome Forecast
Issued by NWS North Platte, NE

Home | Current Version | Previous Version | Graphics & Text | Print | Product List | Glossary On
Versions: 1 2 3 4 5 6 7 8 9 10 11 12 13 14 15 16 17 18 19 20 21
000
FTUS43 KLBF 012200 AAA
TAFVTN
TAF AMD
KVTN 012259Z 0123/0218 31012G20KT P6SM SCT060
     FM020100 VRB04KT P6SM SCT200
     FM021200 16010KT P6SM BKN080
     FM021500 17016G24KT P6SM BKN080=

USA.gov is the U.S. government's official web portal to all federal, state and local government web resources and services.